Nearby METAR Reports

KLNK - Lincoln, Nebraska, USA
Distance from station: WNW 8mi, 13km
Updated: Wed, 19-Jun-2019 1:54am CDT
Mist, Overcast
Mist, Overcast
 Wind from N
Wind: N 8 mph , 13 km/h
Temperature: 63°F , 17°C
Dew Point: 61°F , 16°C
Humidity: 94%
Barometer: 29.85 inHg , 1010.8 hPa
Summary: Mist
Clouds: Overcast
Visibility: 4 miles , 6 km
Cloud details: Overcast 300 ft
2019/06/19 06:54 KLNK 190654Z AUTO 01007KT 4SM BR OVC003 17/16 A2985 RMK AO2 RAB0557E09B34E38 SLP101 P0000 T01720161
KAHQ - Wahoo, Nebraska, USA
Distance from station: N 31mi, 49km
Updated: Wed, 19-Jun-2019 1:35am CDT
Overcast
Overcast
 Wind from N
Wind: N 3 mph , 6 km/h
Temperature: 63°F , 17°C
Dew Point: 63°F , 17°C
Humidity: 100%
Barometer: 29.87 inHg , 1011.5 hPa
Clouds: Overcast
Visibility: 7 miles , 11 km
Cloud details: Partly Cloudy 1400 ft
Mostly Cloudy 6000 ft
Overcast 7000 ft
2019/06/19 06:35 KAHQ 190635Z AUTO 36003KT 7SM SCT014 BKN060 OVC070 17/17 A2987 RMK AO2 T01680168
 
KBIE - Beatrice Municip, Nebraska, USA
Distance from station: S 36mi, 57km
Updated: Wed, 19-Jun-2019 1:35am CDT
Mist, Overcast
Mist, Overcast
 Wind from NNE
Wind: NNE 10 mph , 17 km/h
Temperature: 66°F , 19°C
Dew Point: 64°F , 18°C
Humidity: 94%
Barometer: 29.85 inHg , 1010.8 hPa
Summary: Mist
Clouds: Overcast
Visibility: 5 miles , 8 km
Cloud details: Overcast 600 ft
2019/06/19 06:35 KBIE 190635Z AUTO 03009KT 5SM BR OVC006 19/18 A2985 RMK AO2 T01860181
KMLE - Omaha/Millard, Nebraska, USA
Distance from station: NE 39mi, 63km
Updated: Wed, 19-Jun-2019 1:35am CDT
Overcast
Overcast
 Wind from calm
Wind: Calm
Temperature: 66°F , 19°C
Dew Point: 64°F , 18°C
Humidity: 94%
Barometer: 29.86 inHg , 1011.2 hPa
Clouds: Overcast
Visibility: 7 miles , 11 km
Cloud details: Partly Cloudy 800 ft
Overcast 1300 ft
2019/06/19 06:35 KMLE 190635Z AUTO 00000KT 7SM SCT008 OVC013 19/18 A2986 RMK AO2 T01870177
 
KPMV - Plattsmouth Muni, Nebraska, USA
Distance from station: ENE 39mi, 63km
Updated: Wed, 19-Jun-2019 1:35am CDT
Overcast
Overcast
 Wind from NNE
Wind: NNE 5 mph , 7 km/h
Temperature: 64°F , 18°C
Dew Point: 64°F , 18°C
Humidity: 100%
Barometer: 29.86 inHg , 1011.2 hPa
Clouds: Overcast
Visibility: 7 miles , 11 km
Cloud details: Overcast 500 ft
2019/06/19 06:35 KPMV 190635Z AUTO 03004KT 7SM OVC005 18/18 A2986 RMK AO2 T01830183
KAFK - Nebraska City, Nebraska, USA
Distance from station: ESE 43mi, 69km
Updated: Wed, 19-Jun-2019 1:35am CDT
Overcast
Overcast
 Wind from NE
Wind: NE 5 mph , 7 km/h
Temperature: 64°F , 18°C
Dew Point: 64°F , 18°C
Humidity: 100%
Barometer: 29.86 inHg , 1011.2 hPa
Clouds: Overcast
Visibility: 7 miles , 11 km
Cloud details: Mostly Cloudy 600 ft
Overcast 1000 ft
2019/06/19 06:35 KAFK 190635Z AUTO 04004KT 7SM BKN006 OVC010 18/18 A2986 RMK AO2 T01800180
 
KOFF - Offutt Afb/Belle, Nebraska, USA
Distance from station: ENE 44mi, 70km
Updated: Wed, 19-Jun-2019 12:56am CDT
Mist, Overcast
Mist, Overcast
 Wind from NNE
Wind: NNE 5 mph , 7 km/h
Temperature: 66°F , 19°C
Dew Point: 63°F , 17°C
Humidity: 88%
Barometer: 29.85 inHg , 1010.8 hPa
Summary: Mist
Clouds: Overcast
Visibility: 6 miles , 10 km
Cloud details: Partly Cloudy 600 ft
Overcast 1000 ft
2019/06/19 05:56 KOFF 190556Z 02004KT 6SM BR SCT006 OVC010 19/17 A2985 RMK AO2A SLP097 RVRNO $
KFET - Fremont Muni Arp, Nebraska, USA
Distance from station: N 46mi, 74km
Updated: Wed, 19-Jun-2019 1:35am CDT
Overcast
Overcast
 Wind from calm
Wind: Calm
Temperature: 64°F , 18°C
Dew Point: 63°F , 17°C
Humidity: 94%
Barometer: 29.89 inHg , 1012.2 hPa
Clouds: Overcast
Visibility: 7 miles , 11 km
Cloud details: Partly Cloudy 400 ft
Mostly Cloudy 1100 ft
Overcast 1800 ft
2019/06/19 06:35 KFET 190635Z AUTO 00000KT 7SM SCT004 BKN011 OVC018 18/17 A2989 RMK AO2 T01760170
 
KBTA - Blair Muni, Nebraska, USA
Distance from station: NNE 51mi, 82km
Updated: Wed, 19-Jun-2019 1:35am CDT
Mist, Overcast
Mist, Overcast
 Wind from N
Wind: N 5 mph , 7 km/h
Temperature: 63°F , 17°C
Dew Point: 61°F , 16°C
Humidity: 94%
Barometer: 29.87 inHg , 1011.5 hPa
Summary: Mist
Clouds: Overcast
Visibility: 4 miles , 6 km
Cloud details: Partly Cloudy 3100 ft
Overcast 8000 ft
2019/06/19 06:35 KBTA 190635Z AUTO 36004KT 4SM BR SCT031 OVC080 17/16 A2987 RMK AO2 T01710162
KJYR - York, Nebraska, USA
Distance from station: W 52mi, 84km
Updated: Wed, 19-Jun-2019 1:35am CDT
Mist, Overcast
Mist, Overcast
 Wind from NE
Wind: NE 8 mph , 13 km/h
Temperature: 59°F , 15°C
Dew Point: 59°F , 15°C
Humidity: 100%
Barometer: 29.89 inHg , 1012.2 hPa
Summary: Mist
Clouds: Overcast
Visibility: 5 miles , 8 km
Cloud details: Overcast 400 ft
2019/06/19 06:35 KJYR 190635Z AUTO 04007KT 5SM BR OVC004 15/15 A2989 RMK AO2
 
KOMA - Omaha/Eppley, Nebraska, USA
Distance from station: NE 53mi, 85km
Updated: Wed, 19-Jun-2019 1:52am CDT
Overcast
Overcast
 Wind from NNE
Wind: NNE 5 mph , 7 km/h
Temperature: 66°F , 19°C
Dew Point: 63°F , 17°C
Humidity: 88%
Barometer: 29.85 inHg , 1010.8 hPa
Clouds: Overcast
Visibility: 10 miles , 16 km
Cloud details: Few Clouds 2100 ft
Overcast 7500 ft
2019/06/19 06:52 KOMA 190652Z 03004KT 10SM FEW021 OVC075 19/17 A2985 RMK AO2 SLP103 T01890172
KOLU - Columbus Muni, Nebraska, USA
Distance from station: NW 58mi, 93km
Updated: Wed, 19-Jun-2019 1:56am CDT
Partly Cloudy
Partly Cloudy
 Wind from calm
Wind: Calm
Temperature: 55°F , 13°C
Dew Point: 54°F , 12°C
Humidity: 94%
Barometer: 29.89 inHg , 1012.2 hPa
Clouds: Partly Cloudy
Visibility: 10 miles , 16 km
Cloud details: Partly Cloudy 1200 ft
2019/06/19 06:56 KOLU 190656Z AUTO 00000KT 10SM SCT012 13/12 A2989 RMK AO2 SLP122 T01330122